sensor_id;sensor_type;location;lat;lon;timestamp;temperature;humidity
62998;DHT22;55949;52.590;7.330;2023-07-29T00:00:41;21.40;99.90
62998;DHT22;55949;52.590;7.330;2023-07-29T00:01:41;21.40;99.90
62998;DHT22;55949;52.590;7.330;2023-07-29T00:02:42;21.40;99.90
62998;DHT22;55949;52.590;7.330;2023-07-29T00:03:43;21.30;99.90
62998;DHT22;55949;52.590;7.330;2023-07-29T00:04:43;21.30;99.90
62998;DHT22;55949;52.590;7.330;2023-07-29T00:05:44;21.20;99.90
62998;DHT22;55949;52.590;7.330;2023-07-29T00:06:45;21.20;99.90
62998;DHT22;55949;52.590;7.330;2023-07-29T00:07:46;21.20;99.90
62998;DHT22;55949;52.590;7.330;2023-07-29T00:08:46;21.40;99.90
62998;DHT22;55949;52.590;7.330;2023-07-29T00:09:47;21.50;99.90
62998;DHT22;55949;52.590;7.330;2023-07-29T00:10:47;21.40;99.90
62998;DHT22;55949;52.590;7.330;2023-07-29T00:11:48;21.50;99.90
62998;DHT22;55949;52.590;7.330;2023-07-29T00:12:49;21.50;99.90
62998;DHT22;55949;52.590;7.330;2023-07-29T00:13:50;21.50;99.90
62998;DHT22;55949;52.590;7.330;2023-07-29T00:14:51;21.40;99.90
62998;DHT22;55949;52.590;7.330;2023-07-29T00:15:54;21.40;99.90
62998;DHT22;55949;52.590;7.330;2023-07-29T00:16:55;21.30;99.90
62998;DHT22;55949;52.590;7.330;2023-07-29T00:17:55;21.30;99.90
62998;DHT22;55949;52.590;7.330;2023-07-29T00:18:56;21.20;99.90
62998;DHT22;55949;52.590;7.330;2023-07-29T00:19:57;21.10;99.90
62998;DHT22;55949;52.590;7.330;2023-07-29T00:20:57;21.10;99.90
62998;DHT22;55949;52.590;7.330;2023-07-29T00:21:58;21.30;99.90
62998;DHT22;55949;52.590;7.330;2023-07-29T00:22:59;21.40;99.90
62998;DHT22;55949;52.590;7.330;2023-07-29T00:24:00;21.50;99.90
62998;DHT22;55949;52.590;7.330;2023-07-29T00:25:01;21.40;99.90
62998;DHT22;55949;52.590;7.330;2023-07-29T00:26:02;21.30;99.90
62998;DHT22;55949;52.590;7.330;2023-07-29T00:27:03;21.40;99.90
62998;DHT22;55949;52.590;7.330;2023-07-29T00:28:04;21.30;99.90
62998;DHT22;55949;52.590;7.330;2023-07-29T00:29:04;21.40;99.90
62998;DHT22;55949;52.590;7.330;2023-07-29T00:30:05;21.40;99.90
62998;DHT22;55949;52.590;7.330;2023-07-29T00:31:06;21.30;99.90
62998;DHT22;55949;52.590;7.330;2023-07-29T00:32:07;21.40;99.90
62998;DHT22;55949;52.590;7.330;2023-07-29T00:33:08;21.30;99.90
62998;DHT22;55949;52.590;7.330;2023-07-29T00:34:09;21.30;99.90
62998;DHT22;55949;52.590;7.330;2023-07-29T00:35:09;21.30;99.90
62998;DHT22;55949;52.590;7.330;2023-07-29T00:36:10;21.30;99.90
62998;DHT22;55949;52.590;7.330;2023-07-29T00:37:11;21.30;99.90
62998;DHT22;55949;52.590;7.330;2023-07-29T00:38:12;21.30;99.90
62998;DHT22;55949;52.590;7.330;2023-07-29T00:39:13;21.30;99.90
62998;DHT22;55949;52.590;7.330;2023-07-29T00:40:20;21.20;99.90
62998;DHT22;55949;52.590;7.330;2023-07-29T00:41:21;21.20;99.90
62998;DHT22;55949;52.590;7.330;2023-07-29T00:42:23;21.20;99.90
62998;DHT22;55949;52.590;7.330;2023-07-29T00:43:23;21.20;99.90
62998;DHT22;55949;52.590;7.330;2023-07-29T00:44:24;21.40;99.90
62998;DHT22;55949;52.590;7.330;2023-07-29T00:45:25;21.30;99.90
62998;DHT22;55949;52.590;7.330;2023-07-29T00:46:28;21.40;99.90
62998;DHT22;55949;52.590;7.330;2023-07-29T00:47:29;21.50;99.90
62998;DHT22;55949;52.590;7.330;2023-07-29T00:48:30;21.50;99.90
62998;DHT22;55949;52.590;7.330;2023-07-29T00:49:31;21.60;99.90
62998;DHT22;55949;52.590;7.330;2023-07-29T00:50:32;21.70;99.90
62998;DHT22;55949;52.590;7.330;2023-07-29T00:51:33;21.60;99.90
62998;DHT22;55949;52.590;7.330;2023-07-29T00:52:34;21.60;99.90
62998;DHT22;55949;52.590;7.330;2023-07-29T00:53:35;21.60;99.90
62998;DHT22;55949;52.590;7.330;2023-07-29T00:54:35;21.60;99.90
62998;DHT22;55949;52.590;7.330;2023-07-29T00:55:37;21.60;99.90
62998;DHT22;55949;52.590;7.330;2023-07-29T00:56:37;21.60;99.90
62998;DHT22;55949;52.590;7.330;2023-07-29T00:57:38;21.60;99.90
62998;DHT22;55949;52.590;7.330;2023-07-29T00:58:40;21.60;99.90
62998;DHT22;55949;52.590;7.330;2023-07-29T00:59:41;21.60;99.90
62998;DHT22;55949;52.590;7.330;2023-07-29T01:00:42;21.70;99.90
62998;DHT22;55949;52.590;7.330;2023-07-29T01:01:43;21.70;99.90
62998;DHT22;55949;52.590;7.330;2023-07-29T01:02:44;21.70;99.90
62998;DHT22;55949;52.590;7.330;2023-07-29T01:03:44;21.70;99.90
62998;DHT22;55949;52.590;7.330;2023-07-29T01:04:46;21.60;99.90
62998;DHT22;55949;52.590;7.330;2023-07-29T01:11:08;21.40;99.90
62998;DHT22;55949;52.590;7.330;2023-07-29T01:12:22;21.30;99.90
62998;DHT22;55949;52.590;7.330;2023-07-29T01:13:50;21.30;99.90
62998;DHT22;55949;52.590;7.330;2023-07-29T01:15:09;21.40;99.90
62998;DHT22;55949;52.590;7.330;2023-07-29T01:16:16;21.50;99.90
62998;DHT22;55949;52.590;7.330;2023-07-29T01:17:29;21.70;99.90
62998;DHT22;55949;52.590;7.330;2023-07-29T01:18:31;22.00;99.90
62998;DHT22;55949;52.590;7.330;2023-07-29T01:20:07;22.00;99.90
62998;DHT22;55949;52.590;7.330;2023-07-29T01:21:08;22.20;99.90
62998;DHT22;55949;52.590;7.330;2023-07-29T01:22:11;22.00;99.90
62998;DHT22;55949;52.590;7.330;2023-07-29T01:23:12;21.90;99.90
62998;DHT22;55949;52.590;7.330;2023-07-29T01:24:13;21.50;99.90
62998;DHT22;55949;52.590;7.330;2023-07-29T01:25:14;21.20;99.90
62998;DHT22;55949;52.590;7.330;2023-07-29T01:26:15;21.30;99.90
62998;DHT22;55949;52.590;7.330;2023-07-29T01:27:15;21.30;99.90
62998;DHT22;55949;52.590;7.330;2023-07-29T01:28:16;21.30;99.90
62998;DHT22;55949;52.590;7.330;2023-07-29T01:29:17;21.40;99.90
62998;DHT22;55949;52.590;7.330;2023-07-29T01:30:20;21.50;99.90
62998;DHT22;55949;52.590;7.330;2023-07-29T01:31:37;21.70;99.90
62998;DHT22;55949;52.590;7.330;2023-07-29T01:34:06;21.60;99.90
62998;DHT22;55949;52.590;7.330;2023-07-29T01:35:21;21.50;99.90
62998;DHT22;55949;52.590;7.330;2023-07-29T01:36:26;21.60;99.90
62998;DHT22;55949;52.590;7.330;2023-07-29T01:37:31;21.60;99.90
62998;DHT22;55949;52.590;7.330;2023-07-29T01:38:34;21.70;99.90
62998;DHT22;55949;52.590;7.330;2023-07-29T01:39:37;21.60;99.90
62998;DHT22;55949;52.590;7.330;2023-07-29T01:40:38;21.50;99.90
62998;DHT22;55949;52.590;7.330;2023-07-29T01:41:40;21.40;99.90
62998;DHT22;55949;52.590;7.330;2023-07-29T01:42:41;21.30;99.90
62998;DHT22;55949;52.590;7.330;2023-07-29T01:43:42;21.40;99.90
62998;DHT22;55949;52.590;7.330;2023-07-29T01:44:44;21.50;99.90
62998;DHT22;55949;52.590;7.330;2023-07-29T01:45:45;21.40;99.90
62998;DHT22;55949;52.590;7.330;2023-07-29T01:46:46;21.40;99.90
62998;DHT22;55949;52.590;7.330;2023-07-29T01:47:47;21.30;99.90
62998;DHT22;55949;52.590;7.330;2023-07-29T01:48:48;21.30;99.90
62998;DHT22;55949;52.590;7.330;2023-07-29T01:49:48;21.40;99.90
62998;DHT22;55949;52.590;7.330;2023-07-29T01:50:49;21.50;99.90
62998;DHT22;55949;52.590;7.330;2023-07-29T01:51:50;21.80;99.90
62998;DHT22;55949;52.590;7.330;2023-07-29T01:52:50;21.80;99.90
62998;DHT22;55949;52.590;7.330;2023-07-29T01:53:51;21.80;99.90
62998;DHT22;55949;52.590;7.330;2023-07-29T01:54:52;21.80;99.90
62998;DHT22;55949;52.590;7.330;2023-07-29T01:55:53;21.90;99.90
62998;DHT22;55949;52.590;7.330;2023-07-29T01:56:53;22.00;99.90
62998;DHT22;55949;52.590;7.330;2023-07-29T01:57:54;21.90;99.90
62998;DHT22;55949;52.590;7.330;2023-07-29T01:58:54;21.90;99.90
62998;DHT22;55949;52.590;7.330;2023-07-29T01:59:55;21.80;99.90
62998;DHT22;55949;52.590;7.330;2023-07-29T02:00:56;21.80;99.90
62998;DHT22;55949;52.590;7.330;2023-07-29T02:01:56;21.80;99.90
62998;DHT22;55949;52.590;7.330;2023-07-29T02:02:57;21.80;99.90
62998;DHT22;55949;52.590;7.330;2023-07-29T02:03:58;22.00;99.90
62998;DHT22;55949;52.590;7.330;2023-07-29T02:04:58;22.00;99.90
62998;DHT22;55949;52.590;7.330;2023-07-29T02:05:59;21.90;99.90
62998;DHT22;55949;52.590;7.330;2023-07-29T02:07:00;21.90;99.90
62998;DHT22;55949;52.590;7.330;2023-07-29T02:08:00;21.90;99.90
62998;DHT22;55949;52.590;7.330;2023-07-29T02:09:01;22.00;99.90
62998;DHT22;55949;52.590;7.330;2023-07-29T02:10:02;22.10;99.90
62998;DHT22;55949;52.590;7.330;2023-07-29T02:11:02;22.10;99.90
62998;DHT22;55949;52.590;7.330;2023-07-29T02:12:03;22.10;99.90
62998;DHT22;55949;52.590;7.330;2023-07-29T02:13:04;22.10;99.90
62998;DHT22;55949;52.590;7.330;2023-07-29T02:14:05;22.00;99.90
62998;DHT22;55949;52.590;7.330;2023-07-29T02:15:06;21.90;99.90
62998;DHT22;55949;52.590;7.330;2023-07-29T02:16:07;22.00;99.90
62998;DHT22;55949;52.590;7.330;2023-07-29T02:17:07;22.20;99.90
62998;DHT22;55949;52.590;7.330;2023-07-29T02:18:09;22.30;99.90
62998;DHT22;55949;52.590;7.330;2023-07-29T02:19:09;22.20;99.90
62998;DHT22;55949;52.590;7.330;2023-07-29T02:20:10;22.30;99.90
62998;DHT22;55949;52.590;7.330;2023-07-29T02:21:11;22.50;99.90
62998;DHT22;55949;52.590;7.330;2023-07-29T02:22:16;22.40;99.90
62998;DHT22;55949;52.590;7.330;2023-07-29T02:23:17;22.40;99.90
62998;DHT22;55949;52.590;7.330;2023-07-29T02:24:19;22.30;99.90
62998;DHT22;55949;52.590;7.330;2023-07-29T02:25:19;22.30;99.90
62998;DHT22;55949;52.590;7.330;2023-07-29T02:26:21;22.10;99.90
62998;DHT22;55949;52.590;7.330;2023-07-29T02:27:22;22.00;99.90
62998;DHT22;55949;52.590;7.330;2023-07-29T02:28:23;22.10;99.90
62998;DHT22;55949;52.590;7.330;2023-07-29T02:29:23;22.10;99.90
62998;DHT22;55949;52.590;7.330;2023-07-29T02:30:25;22.20;99.90
62998;DHT22;55949;52.590;7.330;2023-07-29T02:31:26;22.20;99.90
62998;DHT22;55949;52.590;7.330;2023-07-29T02:32:26;22.00;99.90
62998;DHT22;55949;52.590;7.330;2023-07-29T02:33:27;22.00;99.90
62998;DHT22;55949;52.590;7.330;2023-07-29T02:34:28;22.00;99.90
62998;DHT22;55949;52.590;7.330;2023-07-29T02:35:28;21.90;99.90
62998;DHT22;55949;52.590;7.330;2023-07-29T02:36:29;21.80;99.90
62998;DHT22;55949;52.590;7.330;2023-07-29T02:37:30;21.80;99.90
62998;DHT22;55949;52.590;7.330;2023-07-29T02:38:30;21.70;99.90
62998;DHT22;55949;52.590;7.330;2023-07-29T02:39:31;21.60;99.90
62998;DHT22;55949;52.590;7.330;2023-07-29T02:40:32;21.40;99.90
62998;DHT22;55949;52.590;7.330;2023-07-29T02:41:32;21.00;99.90
62998;DHT22;55949;52.590;7.330;2023-07-29T02:42:33;20.90;99.90
62998;DHT22;55949;52.590;7.330;2023-07-29T02:43:34;20.90;99.90
62998;DHT22;55949;52.590;7.330;2023-07-29T02:44:34;20.80;99.90
62998;DHT22;55949;52.590;7.330;2023-07-29T02:45:35;20.90;99.90
62998;DHT22;55949;52.590;7.330;2023-07-29T02:46:36;20.90;99.90
62998;DHT22;55949;52.590;7.330;2023-07-29T02:47:37;20.80;99.90
62998;DHT22;55949;52.590;7.330;2023-07-29T02:48:38;20.70;99.90
62998;DHT22;55949;52.590;7.330;2023-07-29T02:49:39;20.80;99.90
62998;DHT22;55949;52.590;7.330;2023-07-29T02:50:39;20.90;99.90
62998;DHT22;55949;52.590;7.330;2023-07-29T02:51:40;20.80;99.90
62998;DHT22;55949;52.590;7.330;2023-07-29T02:52:41;20.80;99.90
62998;DHT22;55949;52.590;7.330;2023-07-29T02:53:42;21.00;99.90
62998;DHT22;55949;52.590;7.330;2023-07-29T02:54:42;21.10;99.90
62998;DHT22;55949;52.590;7.330;2023-07-29T02:55:43;21.20;99.90
62998;DHT22;55949;52.590;7.330;2023-07-29T02:56:44;21.30;99.90
62998;DHT22;55949;52.590;7.330;2023-07-29T02:57:45;21.40;99.90
62998;DHT22;55949;52.590;7.330;2023-07-29T02:58:45;21.40;99.90
62998;DHT22;55949;52.590;7.330;2023-07-29T02:59:46;21.50;99.90
62998;DHT22;55949;52.590;7.330;2023-07-29T03:00:46;21.50;99.90
62998;DHT22;55949;52.590;7.330;2023-07-29T03:01:49;21.50;99.90
62998;DHT22;55949;52.590;7.330;2023-07-29T03:02:50;21.40;99.90
62998;DHT22;55949;52.590;7.330;2023-07-29T03:03:51;21.40;99.90
62998;DHT22;55949;52.590;7.330;2023-07-29T03:04:51;21.40;99.90
62998;DHT22;55949;52.590;7.330;2023-07-29T03:06:01;21.40;99.90
62998;DHT22;55949;52.590;7.330;2023-07-29T03:07:02;21.30;99.90
62998;DHT22;55949;52.590;7.330;2023-07-29T03:08:03;21.20;99.90
62998;DHT22;55949;52.590;7.330;2023-07-29T03:09:04;21.20;99.90
62998;DHT22;55949;52.590;7.330;2023-07-29T03:10:05;21.40;99.90
62998;DHT22;55949;52.590;7.330;2023-07-29T03:11:08;21.40;99.90
62998;DHT22;55949;52.590;7.330;2023-07-29T03:12:09;21.30;99.90
62998;DHT22;55949;52.590;7.330;2023-07-29T03:13:09;21.20;99.90
62998;DHT22;55949;52.590;7.330;2023-07-29T03:14:10;20.80;99.90
62998;DHT22;55949;52.590;7.330;2023-07-29T03:15:11;20.90;99.90
62998;DHT22;55949;52.590;7.330;2023-07-29T03:16:14;20.90;99.90
62998;DHT22;55949;52.590;7.330;2023-07-29T03:17:15;21.00;99.90
62998;DHT22;55949;52.590;7.330;2023-07-29T03:18:16;21.00;99.90
62998;DHT22;55949;52.590;7.330;2023-07-29T03:19:16;21.10;99.90
62998;DHT22;55949;52.590;7.330;2023-07-29T03:20:20;21.00;99.90
62998;DHT22;55949;52.590;7.330;2023-07-29T03:21:21;21.10;99.90
62998;DHT22;55949;52.590;7.330;2023-07-29T03:22:21;21.10;99.90
62998;DHT22;55949;52.590;7.330;2023-07-29T03:23:22;21.20;99.90
62998;DHT22;55949;52.590;7.330;2023-07-29T03:24:22;21.30;99.90
62998;DHT22;55949;52.590;7.330;2023-07-29T03:25:23;21.30;99.90
62998;DHT22;55949;52.590;7.330;2023-07-29T03:26:24;21.30;99.90
62998;DHT22;55949;52.590;7.330;2023-07-29T03:27:25;21.00;99.90
62998;DHT22;55949;52.590;7.330;2023-07-29T03:28:27;21.00;99.90
62998;DHT22;55949;52.590;7.330;2023-07-29T03:29:28;21.00;99.90
62998;DHT22;55949;52.590;7.330;2023-07-29T03:30:29;21.00;99.90
62998;DHT22;55949;52.590;7.330;2023-07-29T03:31:30;20.80;99.90
62998;DHT22;55949;52.590;7.330;2023-07-29T03:32:30;20.90;99.90
62998;DHT22;55949;52.590;7.330;2023-07-29T03:33:31;20.90;99.90
62998;DHT22;55949;52.590;7.330;2023-07-29T03:34:32;21.00;99.90
62998;DHT22;55949;52.590;7.330;2023-07-29T03:35:33;21.10;99.90
62998;DHT22;55949;52.590;7.330;2023-07-29T03:36:33;21.10;99.90
62998;DHT22;55949;52.590;7.330;2023-07-29T03:37:34;21.20;99.90
62998;DHT22;55949;52.590;7.330;2023-07-29T03:38:34;21.10;99.90
62998;DHT22;55949;52.590;7.330;2023-07-29T03:39:35;21.10;99.90
62998;DHT22;55949;52.590;7.330;2023-07-29T03:40:36;21.10;99.90
62998;DHT22;55949;52.590;7.330;2023-07-29T03:41:37;21.00;99.90
62998;DHT22;55949;52.590;7.330;2023-07-29T03:42:38;21.00;99.90
62998;DHT22;55949;52.590;7.330;2023-07-29T03:43:38;21.00;99.90
62998;DHT22;55949;52.590;7.330;2023-07-29T03:44:39;21.10;99.90
62998;DHT22;55949;52.590;7.330;2023-07-29T03:45:40;21.20;99.90
62998;DHT22;55949;52.590;7.330;2023-07-29T03:46:41;21.10;99.90
62998;DHT22;55949;52.590;7.330;2023-07-29T03:47:42;21.10;99.90
62998;DHT22;55949;52.590;7.330;2023-07-29T03:48:42;21.10;99.90
62998;DHT22;55949;52.590;7.330;2023-07-29T03:49:43;21.00;99.90
62998;DHT22;55949;52.590;7.330;2023-07-29T03:50:44;21.10;99.90
62998;DHT22;55949;52.590;7.330;2023-07-29T03:51:44;21.10;99.90
62998;DHT22;55949;52.590;7.330;2023-07-29T03:52:46;21.10;99.90
62998;DHT22;55949;52.590;7.330;2023-07-29T03:53:46;20.90;99.90
62998;DHT22;55949;52.590;7.330;2023-07-29T03:54:48;20.90;99.90
62998;DHT22;55949;52.590;7.330;2023-07-29T03:55:49;21.00;99.90
62998;DHT22;55949;52.590;7.330;2023-07-29T03:56:50;21.10;99.90
62998;DHT22;55949;52.590;7.330;2023-07-29T03:57:51;21.20;99.90
62998;DHT22;55949;52.590;7.330;2023-07-29T03:58:52;21.30;99.90
62998;DHT22;55949;52.590;7.330;2023-07-29T03:59:53;21.40;99.90
62998;DHT22;55949;52.590;7.330;2023-07-29T04:00:54;21.40;99.90
62998;DHT22;55949;52.590;7.330;2023-07-29T04:01:55;21.20;99.90
62998;DHT22;55949;52.590;7.330;2023-07-29T04:02:56;21.20;99.90
62998;DHT22;55949;52.590;7.330;2023-07-29T04:03:57;21.20;99.90
62998;DHT22;55949;52.590;7.330;2023-07-29T04:04:58;21.20;99.90
62998;DHT22;55949;52.590;7.330;2023-07-29T04:05:58;21.30;99.90
62998;DHT22;55949;52.590;7.330;2023-07-29T04:06:59;21.40;99.90
62998;DHT22;55949;52.590;7.330;2023-07-29T04:08:00;21.40;99.90
62998;DHT22;55949;52.590;7.330;2023-07-29T04:09:01;21.50;99.90
62998;DHT22;55949;52.590;7.330;2023-07-29T04:10:02;21.70;99.90
62998;DHT22;55949;52.590;7.330;2023-07-29T04:11:03;21.60;99.90
62998;DHT22;55949;52.590;7.330;2023-07-29T04:12:04;21.60;99.90
62998;DHT22;55949;52.590;7.330;2023-07-29T04:13:05;21.60;99.90
62998;DHT22;55949;52.590;7.330;2023-07-29T04:14:06;21.70;99.90
62998;DHT22;55949;52.590;7.330;2023-07-29T04:15:07;21.60;99.90
62998;DHT22;55949;52.590;7.330;2023-07-29T04:16:08;21.50;99.90
62998;DHT22;55949;52.590;7.330;2023-07-29T04:17:08;21.60;99.90
62998;DHT22;55949;52.590;7.330;2023-07-29T04:18:09;21.70;99.90
62998;DHT22;55949;52.590;7.330;2023-07-29T04:19:10;21.70;99.90
62998;DHT22;55949;52.590;7.330;2023-07-29T04:20:11;21.70;99.90
62998;DHT22;55949;52.590;7.330;2023-07-29T04:21:11;21.80;99.90
62998;DHT22;55949;52.590;7.330;2023-07-29T04:22:12;21.90;99.90
62998;DHT22;55949;52.590;7.330;2023-07-29T04:23:13;21.80;99.90
62998;DHT22;55949;52.590;7.330;2023-07-29T04:24:14;21.70;99.90
62998;DHT22;55949;52.590;7.330;2023-07-29T04:25:14;21.60;99.90
62998;DHT22;55949;52.590;7.330;2023-07-29T04:26:15;21.70;99.90
62998;DHT22;55949;52.590;7.330;2023-07-29T04:27:16;21.60;99.90
62998;DHT22;55949;52.590;7.330;2023-07-29T04:28:16;21.70;99.90
62998;DHT22;55949;52.590;7.330;2023-07-29T04:29:17;21.90;99.90
62998;DHT22;55949;52.590;7.330;2023-07-29T04:30:18;22.00;99.90
62998;DHT22;55949;52.590;7.330;2023-07-29T04:31:18;21.80;99.90
62998;DHT22;55949;52.590;7.330;2023-07-29T04:32:19;21.60;99.90
62998;DHT22;55949;52.590;7.330;2023-07-29T04:33:19;21.50;99.90
62998;DHT22;55949;52.590;7.330;2023-07-29T04:34:20;21.50;99.90
62998;DHT22;55949;52.590;7.330;2023-07-29T04:35:21;21.20;99.90
62998;DHT22;55949;52.590;7.330;2023-07-29T04:36:21;20.80;99.90
62998;DHT22;55949;52.590;7.330;2023-07-29T04:37:22;20.70;99.90
62998;DHT22;55949;52.590;7.330;2023-07-29T04:38:27;20.90;99.90
62998;DHT22;55949;52.590;7.330;2023-07-29T04:39:28;21.00;99.90
62998;DHT22;55949;52.590;7.330;2023-07-29T04:40:28;21.00;99.90
62998;DHT22;55949;52.590;7.330;2023-07-29T04:41:29;20.80;99.90
62998;DHT22;55949;52.590;7.330;2023-07-29T04:42:30;21.00;99.90
62998;DHT22;55949;52.590;7.330;2023-07-29T04:43:32;21.20;99.90
62998;DHT22;55949;52.590;7.330;2023-07-29T04:44:33;21.00;99.90
62998;DHT22;55949;52.590;7.330;2023-07-29T04:45:33;21.10;99.90
62998;DHT22;55949;52.590;7.330;2023-07-29T04:46:37;21.20;99.90
62998;DHT22;55949;52.590;7.330;2023-07-29T04:47:37;21.30;99.90
62998;DHT22;55949;52.590;7.330;2023-07-29T04:48:38;21.10;99.90
62998;DHT22;55949;52.590;7.330;2023-07-29T04:49:38;21.20;99.90
62998;DHT22;55949;52.590;7.330;2023-07-29T04:50:40;21.20;99.90
62998;DHT22;55949;52.590;7.330;2023-07-29T04:51:41;21.20;99.90
62998;DHT22;55949;52.590;7.330;2023-07-29T04:52:42;21.30;99.90
62998;DHT22;55949;52.590;7.330;2023-07-29T04:53:43;21.40;99.90
62998;DHT22;55949;52.590;7.330;2023-07-29T04:54:43;21.40;99.90
62998;DHT22;55949;52.590;7.330;2023-07-29T04:55:44;21.20;99.90
62998;DHT22;55949;52.590;7.330;2023-07-29T04:56:44;21.20;99.90
62998;DHT22;55949;52.590;7.330;2023-07-29T04:57:45;21.20;99.90
62998;DHT22;55949;52.590;7.330;2023-07-29T04:58:46;21.10;99.90
62998;DHT22;55949;52.590;7.330;2023-07-29T04:59:46;20.60;99.90
62998;DHT22;55949;52.590;7.330;2023-07-29T05:00:47;20.60;99.90
62998;DHT22;55949;52.590;7.330;2023-07-29T05:01:48;20.50;99.90
62998;DHT22;55949;52.590;7.330;2023-07-29T05:02:49;20.50;99.90
62998;DHT22;55949;52.590;7.330;2023-07-29T05:03:49;20.70;99.90
62998;DHT22;55949;52.590;7.330;2023-07-29T05:04:50;20.70;99.90
62998;DHT22;55949;52.590;7.330;2023-07-29T05:05:51;20.80;99.90
62998;DHT22;55949;52.590;7.330;2023-07-29T05:06:53;20.90;99.90
62998;DHT22;55949;52.590;7.330;2023-07-29T05:07:54;21.00;99.90
62998;DHT22;55949;52.590;7.330;2023-07-29T05:08:57;21.00;99.90
62998;DHT22;55949;52.590;7.330;2023-07-29T05:09:58;21.10;99.90
62998;DHT22;55949;52.590;7.330;2023-07-29T05:10:59;21.00;99.90
62998;DHT22;55949;52.590;7.330;2023-07-29T05:11:59;21.10;99.90
62998;DHT22;55949;52.590;7.330;2023-07-29T05:13:00;21.30;99.90
62998;DHT22;55949;52.590;7.330;2023-07-29T05:14:01;21.40;99.90
62998;DHT22;55949;52.590;7.330;2023-07-29T05:15:03;21.50;99.90
62998;DHT22;55949;52.590;7.330;2023-07-29T05:16:05;21.40;99.90
62998;DHT22;55949;52.590;7.330;2023-07-29T05:17:05;21.40;99.90
62998;DHT22;55949;52.590;7.330;2023-07-29T05:18:06;21.50;99.90
62998;DHT22;55949;52.590;7.330;2023-07-29T05:19:07;21.60;99.90
62998;DHT22;55949;52.590;7.330;2023-07-29T05:20:08;21.80;99.90
62998;DHT22;55949;52.590;7.330;2023-07-29T05:21:09;22.00;99.90
62998;DHT22;55949;52.590;7.330;2023-07-29T05:22:11;22.10;99.90
62998;DHT22;55949;52.590;7.330;2023-07-29T05:23:12;22.10;99.90
62998;DHT22;55949;52.590;7.330;2023-07-29T05:24:13;22.00;99.90
62998;DHT22;55949;52.590;7.330;2023-07-29T05:25:13;22.00;99.90
62998;DHT22;55949;52.590;7.330;2023-07-29T05:26:14;22.00;99.90
62998;DHT22;55949;52.590;7.330;2023-07-29T05:27:15;22.00;99.90
62998;DHT22;55949;52.590;7.330;2023-07-29T05:28:15;22.20;99.90
62998;DHT22;55949;52.590;7.330;2023-07-29T05:29:16;22.20;99.90
62998;DHT22;55949;52.590;7.330;2023-07-29T05:30:17;22.20;99.90
62998;DHT22;55949;52.590;7.330;2023-07-29T05:31:17;22.30;99.90
62998;DHT22;55949;52.590;7.330;2023-07-29T05:32:18;22.30;99.90
62998;DHT22;55949;52.590;7.330;2023-07-29T05:33:19;22.20;99.90
62998;DHT22;55949;52.590;7.330;2023-07-29T05:34:20;22.30;99.90
62998;DHT22;55949;52.590;7.330;2023-07-29T05:35:20;22.40;99.90
62998;DHT22;55949;52.590;7.330;2023-07-29T05:36:21;22.40;99.90
62998;DHT22;55949;52.590;7.330;2023-07-29T05:37:22;22.40;99.90
62998;DHT22;55949;52.590;7.330;2023-07-29T05:38:26;22.30;99.90
62998;DHT22;55949;52.590;7.330;2023-07-29T05:39:26;21.90;99.90
62998;DHT22;55949;52.590;7.330;2023-07-29T05:40:27;21.90;99.90
62998;DHT22;55949;52.590;7.330;2023-07-29T05:41:28;21.90;99.90
62998;DHT22;55949;52.590;7.330;2023-07-29T05:42:29;21.80;99.90
62998;DHT22;55949;52.590;7.330;2023-07-29T05:43:30;21.90;99.90
62998;DHT22;55949;52.590;7.330;2023-07-29T05:44:30;22.00;99.90
62998;DHT22;55949;52.590;7.330;2023-07-29T05:45:31;22.00;99.90
62998;DHT22;55949;52.590;7.330;2023-07-29T05:46:32;22.00;99.90
62998;DHT22;55949;52.590;7.330;2023-07-29T05:47:32;22.00;99.90
62998;DHT22;55949;52.590;7.330;2023-07-29T05:48:33;21.80;99.90
62998;DHT22;55949;52.590;7.330;2023-07-29T05:49:34;21.90;99.90
62998;DHT22;55949;52.590;7.330;2023-07-29T05:50:35;21.90;99.90
62998;DHT22;55949;52.590;7.330;2023-07-29T05:51:35;21.80;99.90
62998;DHT22;55949;52.590;7.330;2023-07-29T05:52:36;21.90;99.90
62998;DHT22;55949;52.590;7.330;2023-07-29T05:53:37;21.90;99.90
62998;DHT22;55949;52.590;7.330;2023-07-29T05:54:38;21.90;99.90
62998;DHT22;55949;52.590;7.330;2023-07-29T05:55:38;22.00;99.90
62998;DHT22;55949;52.590;7.330;2023-07-29T05:56:39;21.90;99.90
62998;DHT22;55949;52.590;7.330;2023-07-29T05:57:40;22.00;99.90
62998;DHT22;55949;52.590;7.330;2023-07-29T05:58:40;22.00;99.90
62998;DHT22;55949;52.590;7.330;2023-07-29T05:59:41;22.10;99.90
62998;DHT22;55949;52.590;7.330;2023-07-29T06:00:42;22.20;99.90
62998;DHT22;55949;52.590;7.330;2023-07-29T06:01:42;22.30;99.90
62998;DHT22;55949;52.590;7.330;2023-07-29T06:02:43;22.40;99.90
62998;DHT22;55949;52.590;7.330;2023-07-29T06:03:44;22.50;99.90
62998;DHT22;55949;52.590;7.330;2023-07-29T06:04:44;22.40;99.90
62998;DHT22;55949;52.590;7.330;2023-07-29T06:05:45;22.40;99.90
62998;DHT22;55949;52.590;7.330;2023-07-29T06:06:46;22.40;99.90
62998;DHT22;55949;52.590;7.330;2023-07-29T06:07:47;22.40;99.90
62998;DHT22;55949;52.590;7.330;2023-07-29T06:08:48;22.40;99.90
62998;DHT22;55949;52.590;7.330;2023-07-29T06:09:49;22.50;99.90
62998;DHT22;55949;52.590;7.330;2023-07-29T06:10:50;22.50;99.90
62998;DHT22;55949;52.590;7.330;2023-07-29T06:11:51;22.40;99.90
62998;DHT22;55949;52.590;7.330;2023-07-29T06:12:52;22.30;99.90
62998;DHT22;55949;52.590;7.330;2023-07-29T06:13:52;22.40;99.90
62998;DHT22;55949;52.590;7.330;2023-07-29T06:14:53;22.40;99.90
62998;DHT22;55949;52.590;7.330;2023-07-29T06:15:57;22.00;99.90
62998;DHT22;55949;52.590;7.330;2023-07-29T06:16:57;21.90;99.90
62998;DHT22;55949;52.590;7.330;2023-07-29T06:17:58;21.70;99.90
62998;DHT22;55949;52.590;7.330;2023-07-29T06:18:59;21.80;99.90
62998;DHT22;55949;52.590;7.330;2023-07-29T06:19:59;21.70;99.90
62998;DHT22;55949;52.590;7.330;2023-07-29T06:21:00;21.80;99.90
62998;DHT22;55949;52.590;7.330;2023-07-29T06:22:01;21.70;99.90
62998;DHT22;55949;52.590;7.330;2023-07-29T06:23:02;21.70;99.90
62998;DHT22;55949;52.590;7.330;2023-07-29T06:24:03;21.80;99.90
62998;DHT22;55949;52.590;7.330;2023-07-29T06:25:04;21.90;99.90
62998;DHT22;55949;52.590;7.330;2023-07-29T06:26:04;22.00;99.90
62998;DHT22;55949;52.590;7.330;2023-07-29T06:27:07;22.00;99.90
62998;DHT22;55949;52.590;7.330;2023-07-29T06:28:09;21.70;99.90
62998;DHT22;55949;52.590;7.330;2023-07-29T06:29:09;21.50;99.90
62998;DHT22;55949;52.590;7.330;2023-07-29T06:30:10;21.70;99.90
62998;DHT22;55949;52.590;7.330;2023-07-29T06:31:11;21.70;99.90
62998;DHT22;55949;52.590;7.330;2023-07-29T06:32:12;21.80;99.90
62998;DHT22;55949;52.590;7.330;2023-07-29T06:33:12;21.60;99.90
62998;DHT22;55949;52.590;7.330;2023-07-29T06:34:13;20.80;99.90